sensor_id;sensor_type;location;lat;lon;timestamp;temperature;humidity
9383;DHT22;4731;49.708;10.816;2023-04-01T00:01:37;8.60;99.90
9383;DHT22;4731;49.708;10.816;2023-04-01T00:04:04;8.70;99.90
9383;DHT22;4731;49.708;10.816;2023-04-01T00:06:31;8.60;99.90
9383;DHT22;4731;49.708;10.816;2023-04-01T00:08:57;8.70;99.90
9383;DHT22;4731;49.708;10.816;2023-04-01T00:11:24;8.70;99.90
9383;DHT22;4731;49.708;10.816;2023-04-01T00:13:53;8.70;99.90
9383;DHT22;4731;49.708;10.816;2023-04-01T00:16:21;8.70;99.90
9383;DHT22;4731;49.708;10.816;2023-04-01T00:18:49;8.70;99.90
9383;DHT22;4731;49.708;10.816;2023-04-01T00:21:17;8.70;99.90
9383;DHT22;4731;49.708;10.816;2023-04-01T00:23:43;8.80;99.90
9383;DHT22;4731;49.708;10.816;2023-04-01T00:26:10;8.90;99.90
9383;DHT22;4731;49.708;10.816;2023-04-01T00:28:40;8.90;99.90
9383;DHT22;4731;49.708;10.816;2023-04-01T00:31:09;9.00;99.90
9383;DHT22;4731;49.708;10.816;2023-04-01T00:33:37;9.10;99.90
9383;DHT22;4731;49.708;10.816;2023-04-01T00:36:06;9.20;99.90
9383;DHT22;4731;49.708;10.816;2023-04-01T00:38:33;9.20;99.90
9383;DHT22;4731;49.708;10.816;2023-04-01T00:41:00;9.20;99.90
9383;DHT22;4731;49.708;10.816;2023-04-01T00:43:27;9.20;99.90
9383;DHT22;4731;49.708;10.816;2023-04-01T00:45:54;9.20;99.90
9383;DHT22;4731;49.708;10.816;2023-04-01T00:48:23;9.30;99.90
9383;DHT22;4731;49.708;10.816;2023-04-01T00:50:55;9.30;99.90
9383;DHT22;4731;49.708;10.816;2023-04-01T00:53:23;9.20;99.90
9383;DHT22;4731;49.708;10.816;2023-04-01T00:55:55;11.00;99.90
9383;DHT22;4731;49.708;10.816;2023-04-01T00:58:24;9.20;99.90
9383;DHT22;4731;49.708;10.816;2023-04-01T01:00:53;9.20;99.90
9383;DHT22;4731;49.708;10.816;2023-04-01T01:03:21;9.20;99.90
9383;DHT22;4731;49.708;10.816;2023-04-01T01:06:08;9.20;99.90
9383;DHT22;4731;49.708;10.816;2023-04-01T01:08:50;9.20;99.90
9383;DHT22;4731;49.708;10.816;2023-04-01T01:11:24;9.10;99.90
9383;DHT22;4731;49.708;10.816;2023-04-01T01:14:00;9.10;99.90
9383;DHT22;4731;49.708;10.816;2023-04-01T01:16:30;9.10;99.90
9383;DHT22;4731;49.708;10.816;2023-04-01T01:19:08;9.10;99.90
9383;DHT22;4731;49.708;10.816;2023-04-01T01:21:50;9.20;99.90
9383;DHT22;4731;49.708;10.816;2023-04-01T01:24:49;9.20;99.90
9383;DHT22;4731;49.708;10.816;2023-04-01T01:27:18;9.20;99.90
9383;DHT22;4731;49.708;10.816;2023-04-01T01:30:15;9.20;99.90
9383;DHT22;4731;49.708;10.816;2023-04-01T01:33:06;9.10;99.90
9383;DHT22;4731;49.708;10.816;2023-04-01T01:35:38;9.20;99.90
9383;DHT22;4731;49.708;10.816;2023-04-01T01:38:09;9.20;99.90
9383;DHT22;4731;49.708;10.816;2023-04-01T01:40:37;9.20;99.90
9383;DHT22;4731;49.708;10.816;2023-04-01T01:43:10;9.20;99.90
9383;DHT22;4731;49.708;10.816;2023-04-01T01:45:40;9.20;99.90
9383;DHT22;4731;49.708;10.816;2023-04-01T01:48:09;9.20;99.90
9383;DHT22;4731;49.708;10.816;2023-04-01T01:50:38;9.30;99.90
9383;DHT22;4731;49.708;10.816;2023-04-01T01:53:08;9.30;99.90
9383;DHT22;4731;49.708;10.816;2023-04-01T01:55:37;9.30;99.90
9383;DHT22;4731;49.708;10.816;2023-04-01T01:58:09;9.30;99.90
9383;DHT22;4731;49.708;10.816;2023-04-01T02:00:39;9.20;99.90
9383;DHT22;4731;49.708;10.816;2023-04-01T02:03:07;9.20;99.90
9383;DHT22;4731;49.708;10.816;2023-04-01T02:05:35;9.30;99.90
9383;DHT22;4731;49.708;10.816;2023-04-01T02:08:06;9.30;99.90
9383;DHT22;4731;49.708;10.816;2023-04-01T02:10:36;9.30;99.90
9383;DHT22;4731;49.708;10.816;2023-04-01T02:13:09;9.30;99.90
9383;DHT22;4731;49.708;10.816;2023-04-01T02:15:43;9.50;99.90
9383;DHT22;4731;49.708;10.816;2023-04-01T02:18:13;9.30;99.90
9383;DHT22;4731;49.708;10.816;2023-04-01T02:20:41;9.30;99.90
9383;DHT22;4731;49.708;10.816;2023-04-01T02:23:10;9.40;99.90
9383;DHT22;4731;49.708;10.816;2023-04-01T02:25:37;9.40;99.90
9383;DHT22;4731;49.708;10.816;2023-04-01T02:28:06;9.40;99.90
9383;DHT22;4731;49.708;10.816;2023-04-01T02:30:35;9.40;99.90
9383;DHT22;4731;49.708;10.816;2023-04-01T02:33:03;9.50;99.90
9383;DHT22;4731;49.708;10.816;2023-04-01T02:35:33;9.40;99.90
9383;DHT22;4731;49.708;10.816;2023-04-01T02:38:00;9.40;99.90
9383;DHT22;4731;49.708;10.816;2023-04-01T02:40:28;9.40;99.90
9383;DHT22;4731;49.708;10.816;2023-04-01T02:42:55;9.40;99.90
9383;DHT22;4731;49.708;10.816;2023-04-01T02:45:22;9.40;99.90
9383;DHT22;4731;49.708;10.816;2023-04-01T02:47:49;9.30;99.90
9383;DHT22;4731;49.708;10.816;2023-04-01T02:50:16;9.20;99.90
9383;DHT22;4731;49.708;10.816;2023-04-01T02:52:42;9.30;99.90
9383;DHT22;4731;49.708;10.816;2023-04-01T02:55:10;9.30;99.90
9383;DHT22;4731;49.708;10.816;2023-04-01T02:57:38;9.30;99.90
9383;DHT22;4731;49.708;10.816;2023-04-01T03:00:06;9.30;99.90
9383;DHT22;4731;49.708;10.816;2023-04-01T03:02:37;9.30;99.90
9383;DHT22;4731;49.708;10.816;2023-04-01T03:05:05;9.30;99.90
9383;DHT22;4731;49.708;10.816;2023-04-01T03:07:32;9.20;99.90
9383;DHT22;4731;49.708;10.816;2023-04-01T03:09:59;9.30;99.90
9383;DHT22;4731;49.708;10.816;2023-04-01T03:12:25;9.30;99.90
9383;DHT22;4731;49.708;10.816;2023-04-01T03:14:53;9.30;99.90
9383;DHT22;4731;49.708;10.816;2023-04-01T03:17:20;9.30;99.90
9383;DHT22;4731;49.708;10.816;2023-04-01T03:19:47;9.30;99.90
9383;DHT22;4731;49.708;10.816;2023-04-01T03:22:13;9.30;99.90
9383;DHT22;4731;49.708;10.816;2023-04-01T03:24:40;9.20;99.90
9383;DHT22;4731;49.708;10.816;2023-04-01T03:27:07;9.30;99.90
9383;DHT22;4731;49.708;10.816;2023-04-01T03:29:34;9.30;99.90
9383;DHT22;4731;49.708;10.816;2023-04-01T03:32:02;9.40;99.90
9383;DHT22;4731;49.708;10.816;2023-04-01T03:34:28;9.30;99.90
9383;DHT22;4731;49.708;10.816;2023-04-01T03:36:55;9.30;99.90
9383;DHT22;4731;49.708;10.816;2023-04-01T03:39:22;9.40;99.90
9383;DHT22;4731;49.708;10.816;2023-04-01T03:41:49;9.40;99.90
9383;DHT22;4731;49.708;10.816;2023-04-01T03:44:15;9.40;99.90
9383;DHT22;4731;49.708;10.816;2023-04-01T03:46:42;9.40;99.90
9383;DHT22;4731;49.708;10.816;2023-04-01T03:49:11;9.40;99.90
9383;DHT22;4731;49.708;10.816;2023-04-01T03:51:37;9.40;99.90
9383;DHT22;4731;49.708;10.816;2023-04-01T03:54:04;9.40;99.90
9383;DHT22;4731;49.708;10.816;2023-04-01T03:56:31;9.40;99.90
9383;DHT22;4731;49.708;10.816;2023-04-01T03:58:58;9.40;99.90
9383;DHT22;4731;49.708;10.816;2023-04-01T04:01:27;9.40;99.90
9383;DHT22;4731;49.708;10.816;2023-04-01T04:03:55;10.70;99.90
9383;DHT22;4731;49.708;10.816;2023-04-01T04:06:24;9.50;99.90
9383;DHT22;4731;49.708;10.816;2023-04-01T04:08:51;11.10;99.90
9383;DHT22;4731;49.708;10.816;2023-04-01T04:11:18;9.50;99.90
9383;DHT22;4731;49.708;10.816;2023-04-01T04:13:45;9.50;99.90
9383;DHT22;4731;49.708;10.816;2023-04-01T04:16:15;9.50;99.90
9383;DHT22;4731;49.708;10.816;2023-04-01T04:18:42;9.50;99.90
9383;DHT22;4731;49.708;10.816;2023-04-01T04:21:12;9.50;99.90
9383;DHT22;4731;49.708;10.816;2023-04-01T04:23:41;9.40;99.90
9383;DHT22;4731;49.708;10.816;2023-04-01T04:26:10;9.40;99.90
9383;DHT22;4731;49.708;10.816;2023-04-01T04:28:37;9.40;99.90
9383;DHT22;4731;49.708;10.816;2023-04-01T04:31:04;9.30;99.90
9383;DHT22;4731;49.708;10.816;2023-04-01T04:33:32;11.50;99.90
9383;DHT22;4731;49.708;10.816;2023-04-01T04:35:59;9.20;99.90
9383;DHT22;4731;49.708;10.816;2023-04-01T04:38:26;9.20;99.90
9383;DHT22;4731;49.708;10.816;2023-04-01T04:40:55;9.20;99.90
9383;DHT22;4731;49.708;10.816;2023-04-01T04:43:22;9.20;99.90
9383;DHT22;4731;49.708;10.816;2023-04-01T04:45:49;10.30;99.90
9383;DHT22;4731;49.708;10.816;2023-04-01T04:48:16;9.00;99.90
9383;DHT22;4731;49.708;10.816;2023-04-01T04:50:46;9.00;99.90
9383;DHT22;4731;49.708;10.816;2023-04-01T04:53:13;9.00;99.90
9383;DHT22;4731;49.708;10.816;2023-04-01T04:55:43;9.00;99.90
9383;DHT22;4731;49.708;10.816;2023-04-01T04:58:11;9.00;99.90
9383;DHT22;4731;49.708;10.816;2023-04-01T05:00:38;8.90;99.90
9383;DHT22;4731;49.708;10.816;2023-04-01T05:03:05;8.90;99.90
9383;DHT22;4731;49.708;10.816;2023-04-01T05:05:32;9.00;99.90
9383;DHT22;4731;49.708;10.816;2023-04-01T05:07:59;9.00;99.90
9383;DHT22;4731;49.708;10.816;2023-04-01T05:10:26;9.00;99.90
9383;DHT22;4731;49.708;10.816;2023-04-01T05:12:52;9.10;99.90
9383;DHT22;4731;49.708;10.816;2023-04-01T05:15:21;9.00;99.90
9383;DHT22;4731;49.708;10.816;2023-04-01T05:17:47;9.10;99.90
9383;DHT22;4731;49.708;10.816;2023-04-01T05:20:15;9.10;99.90
9383;DHT22;4731;49.708;10.816;2023-04-01T05:22:42;9.00;99.90
9383;DHT22;4731;49.708;10.816;2023-04-01T05:25:09;9.00;99.90
9383;DHT22;4731;49.708;10.816;2023-04-01T05:27:36;9.00;99.90
9383;DHT22;4731;49.708;10.816;2023-04-01T05:30:03;9.00;99.90
9383;DHT22;4731;49.708;10.816;2023-04-01T05:32:32;9.00;99.90
9383;DHT22;4731;49.708;10.816;2023-04-01T05:34:59;9.00;99.90
9383;DHT22;4731;49.708;10.816;2023-04-01T05:37:25;9.00;99.90
9383;DHT22;4731;49.708;10.816;2023-04-01T05:39:52;9.00;99.90
9383;DHT22;4731;49.708;10.816;2023-04-01T05:42:19;9.00;99.90
9383;DHT22;4731;49.708;10.816;2023-04-01T05:44:45;9.00;99.90
9383;DHT22;4731;49.708;10.816;2023-04-01T05:47:12;9.10;99.90
9383;DHT22;4731;49.708;10.816;2023-04-01T05:49:40;9.10;99.90
9383;DHT22;4731;49.708;10.816;2023-04-01T05:52:07;9.10;99.90
9383;DHT22;4731;49.708;10.816;2023-04-01T05:54:34;9.10;99.90
9383;DHT22;4731;49.708;10.816;2023-04-01T05:57:01;9.10;99.90
9383;DHT22;4731;49.708;10.816;2023-04-01T05:59:27;9.20;99.90
9383;DHT22;4731;49.708;10.816;2023-04-01T06:01:56;9.10;99.90
9383;DHT22;4731;49.708;10.816;2023-04-01T06:04:23;9.00;99.90
9383;DHT22;4731;49.708;10.816;2023-04-01T06:06:51;9.10;99.90
9383;DHT22;4731;49.708;10.816;2023-04-01T06:09:19;9.20;99.90
9383;DHT22;4731;49.708;10.816;2023-04-01T06:12:01;9.30;99.90
9383;DHT22;4731;49.708;10.816;2023-04-01T06:14:37;9.30;99.90
9383;DHT22;4731;49.708;10.816;2023-04-01T06:17:26;9.30;99.90
9383;DHT22;4731;49.708;10.816;2023-04-01T06:20:00;9.40;99.90
9383;DHT22;4731;49.708;10.816;2023-04-01T06:22:50;9.40;99.90
9383;DHT22;4731;49.708;10.816;2023-04-01T06:25:36;9.40;99.90
9383;DHT22;4731;49.708;10.816;2023-04-01T06:28:23;9.40;99.90
9383;DHT22;4731;49.708;10.816;2023-04-01T06:31:00;9.40;99.90
9383;DHT22;4731;49.708;10.816;2023-04-01T06:33:39;9.40;99.90
9383;DHT22;4731;49.708;10.816;2023-04-01T06:36:33;9.40;99.90
9383;DHT22;4731;49.708;10.816;2023-04-01T06:39:20;9.50;99.90
9383;DHT22;4731;49.708;10.816;2023-04-01T06:44:55;9.50;99.90
9383;DHT22;4731;49.708;10.816;2023-04-01T06:47:37;9.40;99.90
9383;DHT22;4731;49.708;10.816;2023-04-01T06:50:16;9.40;99.90
9383;DHT22;4731;49.708;10.816;2023-04-01T06:52:51;9.50;99.90
9383;DHT22;4731;49.708;10.816;2023-04-01T06:55:28;9.40;99.90
9383;DHT22;4731;49.708;10.816;2023-04-01T06:57:57;9.40;99.90
9383;DHT22;4731;49.708;10.816;2023-04-01T07:00:29;9.40;99.90
9383;DHT22;4731;49.708;10.816;2023-04-01T07:03:04;9.50;99.90
9383;DHT22;4731;49.708;10.816;2023-04-01T07:05:33;9.50;99.90
9383;DHT22;4731;49.708;10.816;2023-04-01T07:08:03;9.60;99.90
9383;DHT22;4731;49.708;10.816;2023-04-01T07:10:38;9.60;99.90
9383;DHT22;4731;49.708;10.816;2023-04-01T07:13:13;9.70;99.90
9383;DHT22;4731;49.708;10.816;2023-04-01T07:15:42;9.80;99.90
9383;DHT22;4731;49.708;10.816;2023-04-01T07:18:14;9.80;99.90
9383;DHT22;4731;49.708;10.816;2023-04-01T07:20:42;9.90;99.90
9383;DHT22;4731;49.708;10.816;2023-04-01T07:23:16;10.00;99.90
9383;DHT22;4731;49.708;10.816;2023-04-01T07:25:52;10.10;99.90
9383;DHT22;4731;49.708;10.816;2023-04-01T07:28:20;10.10;99.90
9383;DHT22;4731;49.708;10.816;2023-04-01T07:30:57;10.10;99.90
9383;DHT22;4731;49.708;10.816;2023-04-01T07:33:35;10.10;99.90
9383;DHT22;4731;49.708;10.816;2023-04-01T07:36:07;10.20;99.90
9383;DHT22;4731;49.708;10.816;2023-04-01T07:38:42;10.20;99.90
9383;DHT22;4731;49.708;10.816;2023-04-01T07:41:24;10.20;99.90
9383;DHT22;4731;49.708;10.816;2023-04-01T07:44:02;10.30;99.90
9383;DHT22;4731;49.708;10.816;2023-04-01T07:46:53;10.30;99.90
9383;DHT22;4731;49.708;10.816;2023-04-01T07:49:26;10.20;99.90
9383;DHT22;4731;49.708;10.816;2023-04-01T07:52:00;10.20;99.90
9383;DHT22;4731;49.708;10.816;2023-04-01T07:54:34;10.20;99.90
9383;DHT22;4731;49.708;10.816;2023-04-01T07:57:11;10.30;99.90
9383;DHT22;4731;49.708;10.816;2023-04-01T07:59:44;10.30;99.90
9383;DHT22;4731;49.708;10.816;2023-04-01T08:02:24;10.30;99.90
9383;DHT22;4731;49.708;10.816;2023-04-01T08:04:59;10.40;99.90
9383;DHT22;4731;49.708;10.816;2023-04-01T08:07:34;10.30;99.90
9383;DHT22;4731;49.708;10.816;2023-04-01T08:10:11;10.30;99.90
9383;DHT22;4731;49.708;10.816;2023-04-01T08:12:48;10.30;99.90
9383;DHT22;4731;49.708;10.816;2023-04-01T08:15:23;10.40;99.90
9383;DHT22;4731;49.708;10.816;2023-04-01T08:18:14;10.40;99.90
9383;DHT22;4731;49.708;10.816;2023-04-01T08:20:46;10.40;99.90
9383;DHT22;4731;49.708;10.816;2023-04-01T08:23:17;10.30;99.90
9383;DHT22;4731;49.708;10.816;2023-04-01T08:25:51;10.20;99.90
9383;DHT22;4731;49.708;10.816;2023-04-01T08:28:25;10.10;99.90
9383;DHT22;4731;49.708;10.816;2023-04-01T08:31:00;10.20;99.90
9383;DHT22;4731;49.708;10.816;2023-04-01T08:33:29;10.10;99.90
9383;DHT22;4731;49.708;10.816;2023-04-01T08:35:59;10.20;99.90
9383;DHT22;4731;49.708;10.816;2023-04-01T08:38:31;10.10;99.90
9383;DHT22;4731;49.708;10.816;2023-04-01T08:41:06;10.10;99.90
9383;DHT22;4731;49.708;10.816;2023-04-01T08:43:51;10.10;99.90
9383;DHT22;4731;49.708;10.816;2023-04-01T08:46:37;10.10;99.90
9383;DHT22;4731;49.708;10.816;2023-04-01T08:49:21;10.00;99.90
9383;DHT22;4731;49.708;10.816;2023-04-01T08:52:14;10.10;99.90
9383;DHT22;4731;49.708;10.816;2023-04-01T08:54:54;10.00;99.90
9383;DHT22;4731;49.708;10.816;2023-04-01T08:57:37;9.90;99.90
9383;DHT22;4731;49.708;10.816;2023-04-01T09:00:15;9.90;99.90
9383;DHT22;4731;49.708;10.816;2023-04-01T09:03:06;9.90;99.90
9383;DHT22;4731;49.708;10.816;2023-04-01T09:08:41;10.00;99.90
9383;DHT22;4731;49.708;10.816;2023-04-01T09:11:12;10.00;99.90
9383;DHT22;4731;49.708;10.816;2023-04-01T09:14:19;10.00;99.90
9383;DHT22;4731;49.708;10.816;2023-04-01T09:17:14;10.20;99.90
9383;DHT22;4731;49.708;10.816;2023-04-01T09:20:01;10.10;99.90
9383;DHT22;4731;49.708;10.816;2023-04-01T09:22:46;10.00;99.90
9383;DHT22;4731;49.708;10.816;2023-04-01T09:25:41;10.00;99.90
9383;DHT22;4731;49.708;10.816;2023-04-01T09:28:14;10.00;99.90
9383;DHT22;4731;49.708;10.816;2023-04-01T09:33:54;10.10;99.90
9383;DHT22;4731;49.708;10.816;2023-04-01T09:36:45;10.20;99.90
9383;DHT22;4731;49.708;10.816;2023-04-01T09:39:34;10.20;99.90
9383;DHT22;4731;49.708;10.816;2023-04-01T09:45:09;10.20;99.90
9383;DHT22;4731;49.708;10.816;2023-04-01T09:47:49;10.20;99.90
9383;DHT22;4731;49.708;10.816;2023-04-01T09:50:34;10.30;99.90
9383;DHT22;4731;49.708;10.816;2023-04-01T09:53:17;10.40;99.90
9383;DHT22;4731;49.708;10.816;2023-04-01T09:59:26;10.60;99.90
9383;DHT22;4731;49.708;10.816;2023-04-01T10:05:37;10.50;99.90
9383;DHT22;4731;49.708;10.816;2023-04-01T10:08:26;10.40;99.90
9383;DHT22;4731;49.708;10.816;2023-04-01T10:14:25;10.10;99.90
9383;DHT22;4731;49.708;10.816;2023-04-01T10:17:26;9.90;99.90
9383;DHT22;4731;49.708;10.816;2023-04-01T10:23:41;9.80;99.90
9383;DHT22;4731;49.708;10.816;2023-04-01T10:26:32;9.90;99.90
9383;DHT22;4731;49.708;10.816;2023-04-01T10:39:08;10.10;99.90
9383;DHT22;4731;49.708;10.816;2023-04-01T10:48:20;9.80;99.90
9383;DHT22;4731;49.708;10.816;2023-04-01T10:54:21;9.80;99.90
9383;DHT22;4731;49.708;10.816;2023-04-01T10:56:55;9.90;99.90
9383;DHT22;4731;49.708;10.816;2023-04-01T11:02:50;10.10;99.90
9383;DHT22;4731;49.708;10.816;2023-04-01T11:12:11;10.20;99.90
9383;DHT22;4731;49.708;10.816;2023-04-01T11:15:15;10.30;99.90
9383;DHT22;4731;49.708;10.816;2023-04-01T11:21:30;10.40;99.90
9383;DHT22;4731;49.708;10.816;2023-04-01T11:24:20;10.30;99.90
9383;DHT22;4731;49.708;10.816;2023-04-01T11:26:56;10.40;99.90
9383;DHT22;4731;49.708;10.816;2023-04-01T11:29:45;10.40;99.90
9383;DHT22;4731;49.708;10.816;2023-04-01T11:32:29;10.30;99.90
9383;DHT22;4731;49.708;10.816;2023-04-01T11:35:25;10.20;99.90
9383;DHT22;4731;49.708;10.816;2023-04-01T11:37:58;10.10;99.90
9383;DHT22;4731;49.708;10.816;2023-04-01T11:40:35;10.00;99.90
9383;DHT22;4731;49.708;10.816;2023-04-01T11:43:11;9.90;99.90
9383;DHT22;4731;49.708;10.816;2023-04-01T11:45:46;9.90;99.90
9383;DHT22;4731;49.708;10.816;2023-04-01T11:48:33;9.90;99.90
9383;DHT22;4731;49.708;10.816;2023-04-01T11:51:16;9.90;99.90
9383;DHT22;4731;49.708;10.816;2023-04-01T11:53:55;9.90;99.90
9383;DHT22;4731;49.708;10.816;2023-04-01T11:56:39;9.90;99.90
9383;DHT22;4731;49.708;10.816;2023-04-01T12:02:23;9.80;99.90
9383;DHT22;4731;49.708;10.816;2023-04-01T12:05:08;12.10;99.90
9383;DHT22;4731;49.708;10.816;2023-04-01T12:07:56;9.90;99.90
9383;DHT22;4731;49.708;10.816;2023-04-01T12:10:36;9.90;99.90
9383;DHT22;4731;49.708;10.816;2023-04-01T12:13:09;9.90;99.90
9383;DHT22;4731;49.708;10.816;2023-04-01T12:15:52;9.90;99.90
9383;DHT22;4731;49.708;10.816;2023-04-01T12:18:26;11.50;99.90
9383;DHT22;4731;49.708;10.816;2023-04-01T12:21:02;10.10;99.90
9383;DHT22;4731;49.708;10.816;2023-04-01T12:23:46;10.10;99.90
9383;DHT22;4731;49.708;10.816;2023-04-01T12:26:46;10.10;99.90
9383;DHT22;4731;49.708;10.816;2023-04-01T12:29:38;10.10;99.90
9383;DHT22;4731;49.708;10.816;2023-04-01T12:32:16;10.10;99.90
9383;DHT22;4731;49.708;10.816;2023-04-01T12:35:13;10.30;99.90
9383;DHT22;4731;49.708;10.816;2023-04-01T12:37:50;10.30;99.90
9383;DHT22;4731;49.708;10.816;2023-04-01T12:40:26;10.30;99.90
9383;DHT22;4731;49.708;10.816;2023-04-01T12:43:21;10.40;99.90
9383;DHT22;4731;49.708;10.816;2023-04-01T12:52:34;10.50;99.90
9383;DHT22;4731;49.708;10.816;2023-04-01T12:55:25;10.40;99.90
9383;DHT22;4731;49.708;10.816;2023-04-01T13:01:08;10.20;99.90
9383;DHT22;4731;49.708;10.816;2023-04-01T13:04:26;10.20;99.90
9383;DHT22;4731;49.708;10.816;2023-04-01T13:07:21;10.10;99.90
9383;DHT22;4731;49.708;10.816;2023-04-01T13:09:55;10.20;99.90
9383;DHT22;4731;49.708;10.816;2023-04-01T13:12:36;10.20;99.90
9383;DHT22;4731;49.708;10.816;2023-04-01T13:15:32;10.10;99.90
9383;DHT22;4731;49.708;10.816;2023-04-01T13:18:11;10.20;99.90
9383;DHT22;4731;49.708;10.816;2023-04-01T13:20:45;13.20;99.90
9383;DHT22;4731;49.708;10.816;2023-04-01T13:23:24;10.30;99.90
9383;DHT22;4731;49.708;10.816;2023-04-01T13:26:05;10.30;99.90
9383;DHT22;4731;49.708;10.816;2023-04-01T13:28:37;10.50;99.90
9383;DHT22;4731;49.708;10.816;2023-04-01T13:31:09;10.40;99.90
9383;DHT22;4731;49.708;10.816;2023-04-01T13:33:44;10.40;99.90
9383;DHT22;4731;49.708;10.816;2023-04-01T13:36:22;10.30;99.90
9383;DHT22;4731;49.708;10.816;2023-04-01T13:39:19;10.20;99.90
9383;DHT22;4731;49.708;10.816;2023-04-01T13:42:02;10.20;99.90
9383;DHT22;4731;49.708;10.816;2023-04-01T13:44:36;10.30;99.90
9383;DHT22;4731;49.708;10.816;2023-04-01T13:47:17;10.30;99.90
9383;DHT22;4731;49.708;10.816;2023-04-01T13:50:05;10.40;99.90
9383;DHT22;4731;49.708;10.816;2023-04-01T13:52:50;10.20;99.90
9383;DHT22;4731;49.708;10.816;2023-04-01T13:55:28;10.30;99.90
9383;DHT22;4731;49.708;10.816;2023-04-01T14:01:15;10.40;99.90
9383;DHT22;4731;49.708;10.816;2023-04-01T14:04:10;10.50;99.90
9383;DHT22;4731;49.708;10.816;2023-04-01T14:06:53;10.50;99.90
9383;DHT22;4731;49.708;10.816;2023-04-01T14:09:52;10.30;99.90
9383;DHT22;4731;49.708;10.816;2023-04-01T14:12:29;10.20;99.90
9383;DHT22;4731;49.708;10.816;2023-04-01T14:15:09;10.20;99.90
9383;DHT22;4731;49.708;10.816;2023-04-01T14:17:57;10.40;99.90
9383;DHT22;4731;49.708;10.816;2023-04-01T14:20:29;10.20;99.90
9383;DHT22;4731;49.708;10.816;2023-04-01T14:23:23;10.20;99.90
9383;DHT22;4731;49.708;10.816;2023-04-01T14:26:06;10.20;99.90
9383;DHT22;4731;49.708;10.816;2023-04-01T14:28:42;11.00;99.90
9383;DHT22;4731;49.708;10.816;2023-04-01T14:31:26;10.00;99.90
9383;DHT22;4731;49.708;10.816;2023-04-01T14:34:10;10.00;99.90
9383;DHT22;4731;49.708;10.816;2023-04-01T14:36:57;10.00;99.90
9383;DHT22;4731;49.708;10.816;2023-04-01T14:39:42;12.20;99.90
9383;DHT22;4731;49.708;10.816;2023-04-01T14:42:23;9.90;99.90
9383;DHT22;4731;49.708;10.816;2023-04-01T14:45:07;9.90;99.90
9383;DHT22;4731;49.708;10.816;2023-04-01T14:47:51;9.90;99.90
9383;DHT22;4731;49.708;10.816;2023-04-01T14:50:24;11.90;99.90
9383;DHT22;4731;49.708;10.816;2023-04-01T14:52:57;10.10;99.90
9383;DHT22;4731;49.708;10.816;2023-04-01T14:55:32;10.10;99.90
9383;DHT22;4731;49.708;10.816;2023-04-01T14:58:08;10.20;99.90
9383;DHT22;4731;49.708;10.816;2023-04-01T15:00:50;10.30;99.90
9383;DHT22;4731;49.708;10.816;2023-04-01T15:03:23;10.30;99.90
9383;DHT22;4731;49.708;10.816;2023-04-01T15:05:59;10.20;99.90
9383;DHT22;4731;49.708;10.816;2023-04-01T15:08:33;10.20;99.90
9383;DHT22;4731;49.708;10.816;2023-04-01T15:11:22;10.20;99.90
9383;DHT22;4731;49.708;10.816;2023-04-01T15:13:58;10.30;99.90
9383;DHT22;4731;49.708;10.816;2023-04-01T15:16:31;10.40;99.90
9383;DHT22;4731;49.708;10.816;2023-04-01T15:19:09;10.50;99.90
9383;DHT22;4731;49.708;10.816;2023-04-01T15:21:50;10.40;99.90
9383;DHT22;4731;49.708;10.816;2023-04-01T15:24:24;10.40;99.90
9383;DHT22;4731;49.708;10.816;2023-04-01T15:27:18;10.50;99.90
9383;DHT22;4731;49.708;10.816;2023-04-01T15:30:06;10.40;99.90
9383;DHT22;4731;49.708;10.816;2023-04-01T15:32:50;10.40;99.90
9383;DHT22;4731;49.708;10.816;2023-04-01T15:35:27;10.40;99.90
9383;DHT22;4731;49.708;10.816;2023-04-01T15:38:06;10.30;99.90
9383;DHT22;4731;49.708;10.816;2023-04-01T15:40:43;10.30;99.90
9383;DHT22;4731;49.708;10.816;2023-04-01T15:43:23;10.20;99.90
9383;DHT22;4731;49.708;10.816;2023-04-01T15:45:58;10.00;99.90
9383;DHT22;4731;49.708;10.816;2023-04-01T15:48:49;10.00;99.90
9383;DHT22;4731;49.708;10.816;2023-04-01T15:51:39;9.90;99.90
9383;DHT22;4731;49.708;10.816;2023-04-01T15:54:49;9.80;99.90
9383;DHT22;4731;49.708;10.816;2023-04-01T15:57:27;9.70;99.90
9383;DHT22;4731;49.708;10.816;2023-04-01T16:03:09;9.60;99.90
9383;DHT22;4731;49.708;10.816;2023-04-01T16:05:50;9.60;99.90
9383;DHT22;4731;49.708;10.816;2023-04-01T16:08:54;9.50;99.90
9383;DHT22;4731;49.708;10.816;2023-04-01T16:11:31;9.60;99.90
9383;DHT22;4731;49.708;10.816;2023-04-01T16:14:13;9.60;99.90
9383;DHT22;4731;49.708;10.816;2023-04-01T16:17:01;12.10;99.90
9383;DHT22;4731;49.708;10.816;2023-04-01T16:19:41;9.70;99.90
9383;DHT22;4731;49.708;10.816;2023-04-01T16:22:18;9.70;99.90
9383;DHT22;4731;49.708;10.816;2023-04-01T16:24:50;9.60;99.90
9383;DHT22;4731;49.708;10.816;2023-04-01T16:27:25;9.60;99.90
9383;DHT22;4731;49.708;10.816;2023-04-01T16:29:57;9.60;99.90
9383;DHT22;4731;49.708;10.816;2023-04-01T16:32:37;9.50;99.90
9383;DHT22;4731;49.708;10.816;2023-04-01T16:35:16;9.50;99.90
9383;DHT22;4731;49.708;10.816;2023-04-01T16:37:49;9.50;99.90
9383;DHT22;4731;49.708;10.816;2023-04-01T16:40:25;9.50;99.90
9383;DHT22;4731;49.708;10.816;2023-04-01T16:43:11;9.50;99.90
9383;DHT22;4731;49.708;10.816;2023-04-01T16:45:42;9.60;99.90
9383;DHT22;4731;49.708;10.816;2023-04-01T16:48:12;9.60;99.90
9383;DHT22;4731;49.708;10.816;2023-04-01T16:50:49;9.50;99.90
9383;DHT22;4731;49.708;10.816;2023-04-01T16:53:21;9.60;99.90
9383;DHT22;4731;49.708;10.816;2023-04-01T16:55:55;9.60;99.90
9383;DHT22;4731;49.708;10.816;2023-04-01T16:58:34;9.50;99.90
9383;DHT22;4731;49.708;10.816;2023-04-01T17:01:04;9.40;99.90
9383;DHT22;4731;49.708;10.816;2023-04-01T17:03:35;9.40;99.90
9383;DHT22;4731;49.708;10.816;2023-04-01T17:06:13;9.70;99.90
9383;DHT22;4731;49.708;10.816;2023-04-01T17:08:58;9.40;99.90
9383;DHT22;4731;49.708;10.816;2023-04-01T17:11:29;9.40;99.90
9383;DHT22;4731;49.708;10.816;2023-04-01T17:14:04;9.40;99.90
9383;DHT22;4731;49.708;10.816;2023-04-01T17:16:59;11.10;99.90
9383;DHT22;4731;49.708;10.816;2023-04-01T17:19:42;9.30;99.90
9383;DHT22;4731;49.708;10.816;2023-04-01T17:22:22;9.40;99.90
9383;DHT22;4731;49.708;10.816;2023-04-01T17:25:08;9.40;99.90
9383;DHT22;4731;49.708;10.816;2023-04-01T17:27:47;9.30;99.90
9383;DHT22;4731;49.708;10.816;2023-04-01T17:30:31;9.40;99.90
9383;DHT22;4731;49.708;10.816;2023-04-01T17:33:14;9.40;99.90
9383;DHT22;4731;49.708;10.816;2023-04-01T17:35:56;9.30;99.90
9383;DHT22;4731;49.708;10.816;2023-04-01T17:38:36;9.30;99.90
9383;DHT22;4731;49.708;10.816;2023-04-01T17:41:14;9.30;99.90
9383;DHT22;4731;49.708;10.816;2023-04-01T17:43:48;9.30;99.90
9383;DHT22;4731;49.708;10.816;2023-04-01T17:46:28;9.30;99.90
9383;DHT22;4731;49.708;10.816;2023-04-01T17:49:01;9.30;99.90
9383;DHT22;4731;49.708;10.816;2023-04-01T17:51:35;9.30;99.90
9383;DHT22;4731;49.708;10.816;2023-04-01T17:54:16;9.30;99.90
9383;DHT22;4731;49.708;10.816;2023-04-01T17:56:58;9.30;99.90
9383;DHT22;4731;49.708;10.816;2023-04-01T17:59:35;10.40;99.90
9383;DHT22;4731;49.708;10.816;2023-04-01T18:02:15;9.20;99.90
9383;DHT22;4731;49.708;10.816;2023-04-01T18:05:00;9.20;99.90
9383;DHT22;4731;49.708;10.816;2023-04-01T18:07:57;9.20;99.90
9383;DHT22;4731;49.708;10.816;2023-04-01T18:10:37;9.10;99.90